createdAt,value
2019-06-10T00:00:45.713Z,1009.51
2019-06-10T00:01:45.997Z,1009.53
2019-06-10T00:02:45.695Z,1009.47
2019-06-10T00:03:45.678Z,1009.45
2019-06-10T00:04:45.951Z,1009.48
2019-06-10T00:05:45.669Z,1009.43
2019-06-10T00:06:45.649Z,1009.45
2019-06-10T00:07:45.953Z,1009.46
2019-06-10T00:08:45.620Z,1009.44
2019-06-10T00:09:45.620Z,1009.44
2019-06-10T00:10:45.872Z,1009.47
2019-06-10T00:11:45.588Z,1009.39
2019-06-10T00:12:45.575Z,1009.43
2019-06-10T00:13:45.860Z,1009.41
2019-06-10T00:14:45.568Z,1009.46
2019-06-10T00:15:45.537Z,1009.43
2019-06-10T00:16:45.856Z,1009.42
2019-06-10T00:17:55.024Z,1009.44
2019-06-10T00:18:45.935Z,1009.42
2019-06-10T00:19:45.771Z,1009.47
2019-06-10T00:20:45.525Z,1009.44
2019-06-10T00:21:45.476Z,1009.45
2019-06-10T00:22:45.738Z,1009.45
2019-06-10T00:23:45.451Z,1009.41
2019-06-10T00:24:45.439Z,1009.41
2019-06-10T00:25:52.013Z,1009.44
2019-06-10T00:26:45.752Z,1009.49
2019-06-10T00:27:45.727Z,1009.42
2019-06-10T00:28:45.687Z,1009.46
2019-06-10T00:29:45.662Z,1009.53
2019-06-10T00:30:45.630Z,1009.50
2019-06-10T00:31:45.375Z,1009.62
2019-06-10T00:32:45.352Z,1009.49
2019-06-10T00:33:45.655Z,1009.48
2019-06-10T00:34:45.333Z,1009.49
2019-06-10T00:35:45.318Z,1009.42
2019-06-10T00:36:45.685Z,1009.46
2019-06-10T00:37:45.305Z,1009.47
2019-06-10T00:38:45.285Z,1009.40
2019-06-10T00:39:45.593Z,1009.50
2019-06-10T00:40:45.259Z,1009.43
2019-06-10T00:41:45.266Z,1009.37
2019-06-10T00:42:45.527Z,1009.49
2019-06-10T00:43:45.239Z,1009.50
2019-06-10T00:44:45.208Z,1009.48
2019-06-10T00:45:45.483Z,1009.43
2019-06-10T00:46:45.190Z,1009.45
2019-06-10T00:47:45.185Z,1009.46
2019-06-10T00:48:45.519Z,1009.42
2019-06-10T00:49:45.159Z,1009.43
2019-06-10T00:50:45.143Z,1009.43
2019-06-10T00:51:45.451Z,1009.36
2019-06-10T00:52:45.491Z,1009.42
2019-06-10T00:53:45.109Z,1009.38
2019-06-10T00:54:45.397Z,1009.47
2019-06-10T00:55:45.094Z,1009.51
2019-06-10T00:56:45.076Z,1009.34
2019-06-10T00:57:51.602Z,1009.36
2019-06-10T00:58:45.359Z,1009.31
2019-06-10T00:59:45.342Z,1009.39
2019-06-10T01:00:45.343Z,1009.42
2019-06-10T01:01:45.308Z,1009.37
2019-06-10T01:02:45.375Z,1009.42
2019-06-10T01:03:45.002Z,1009.31
2019-06-10T01:04:44.987Z,1009.28
2019-06-10T01:05:45.302Z,1009.31
2019-06-10T01:06:44.964Z,1009.31
2019-06-10T01:07:44.992Z,1009.27
2019-06-10T01:08:45.251Z,1009.36
2019-06-10T01:09:44.933Z,1009.37
2019-06-10T01:10:44.921Z,1009.34
2019-06-10T01:11:45.275Z,1009.34
2019-06-10T01:12:44.897Z,1009.37
2019-06-10T01:13:44.890Z,1009.30
2019-06-10T01:14:45.157Z,1009.29
2019-06-10T01:15:44.865Z,1009.34
2019-06-10T01:16:44.856Z,1009.26
2019-06-10T01:17:45.154Z,1009.28
2019-06-10T01:18:44.871Z,1009.30
2019-06-10T01:19:44.812Z,1009.24
2019-06-10T01:20:45.092Z,1009.26
2019-06-10T01:21:44.798Z,1009.25
2019-06-10T01:22:44.781Z,1009.29
2019-06-10T01:23:45.123Z,1009.27
2019-06-10T01:24:44.768Z,1009.22
2019-06-10T01:25:44.748Z,1009.23
2019-06-10T01:26:45.037Z,1009.18
2019-06-10T01:27:44.727Z,1009.20
2019-06-10T01:28:44.721Z,1009.25
2019-06-10T01:29:51.610Z,1009.32
2019-06-10T01:30:45.020Z,1009.25
2019-06-10T01:31:45.017Z,1009.26
2019-06-10T01:32:45.592Z,1009.23
2019-06-10T01:33:44.995Z,1009.27
2019-06-10T01:34:45.000Z,1009.30
2019-06-10T01:35:44.971Z,1009.25
2019-06-10T01:36:44.633Z,1009.17
2019-06-10T01:37:44.609Z,1009.16
2019-06-10T01:38:44.935Z,1009.15
2019-06-10T01:39:44.598Z,1009.21
2019-06-10T01:40:44.590Z,1009.22
2019-06-10T01:41:44.835Z,1009.20
2019-06-10T01:42:44.561Z,1009.20
2019-06-10T01:43:44.551Z,1009.24
2019-06-10T01:44:44.876Z,1009.19
2019-06-10T01:45:44.527Z,1009.19
2019-06-10T01:46:44.524Z,1009.25
2019-06-10T01:47:44.798Z,1009.27
2019-06-10T01:48:48.094Z,1009.26
2019-06-10T01:49:44.475Z,1009.26
2019-06-10T01:50:44.774Z,1009.26
2019-06-10T01:51:44.507Z,1009.20
2019-06-10T01:52:44.441Z,1009.20
2019-06-10T01:53:44.733Z,1009.16
2019-06-10T01:54:44.423Z,1009.06
2019-06-10T01:55:44.410Z,1009.11
2019-06-10T01:56:44.683Z,1009.11
2019-06-10T01:57:44.405Z,1009.08
2019-06-10T01:58:44.379Z,1009.10
2019-06-10T01:59:44.712Z,1009.10
2019-06-10T02:00:44.353Z,1009.18
2019-06-10T02:01:51.772Z,1009.10
2019-06-10T02:02:45.170Z,1009.08
2019-06-10T02:03:44.676Z,1009.08
2019-06-10T02:04:44.633Z,1009.11
2019-06-10T02:05:44.582Z,1009.05
2019-06-10T02:06:44.571Z,1009.08
2019-06-10T02:07:44.287Z,1009.13
2019-06-10T02:08:44.264Z,1009.10
2019-06-10T02:09:44.565Z,1009.13
2019-06-10T02:10:44.241Z,1009.12
2019-06-10T02:11:44.233Z,1009.09
2019-06-10T02:12:44.515Z,1009.11
2019-06-10T02:13:44.213Z,1009.12
2019-06-10T02:14:44.192Z,1009.09
2019-06-10T02:15:44.453Z,1009.08
2019-06-10T02:16:44.175Z,1009.14
2019-06-10T02:17:44.158Z,1009.06
2019-06-10T02:18:56.900Z,1009.12
2019-06-10T02:19:44.143Z,1009.15
2019-06-10T02:20:44.130Z,1009.07
2019-06-10T02:21:44.111Z,1009.17
2019-06-10T02:22:44.458Z,1009.08
2019-06-10T02:23:44.112Z,1009.14
2019-06-10T02:24:44.087Z,1009.16
2019-06-10T02:25:44.388Z,1009.10
2019-06-10T02:26:44.065Z,1009.12
2019-06-10T02:27:44.043Z,1009.11
2019-06-10T02:28:44.389Z,1009.12
2019-06-10T02:29:44.025Z,1009.14
2019-06-10T02:30:50.861Z,1009.15
2019-06-10T02:31:45.404Z,1009.13
2019-06-10T02:32:43.990Z,1009.13
2019-06-10T02:33:52.422Z,1009.19
2019-06-10T02:35:01.062Z,1009.21
2019-06-10T02:35:48.811Z,1009.23
2019-06-10T02:36:44.784Z,1009.17
2019-06-10T02:37:44.619Z,1009.20
2019-06-10T02:38:44.569Z,1009.21
2019-06-10T02:39:44.278Z,1009.20
2019-06-10T02:40:44.224Z,1009.20
2019-06-10T02:41:44.826Z,1009.21
2019-06-10T02:42:43.898Z,1009.22
2019-06-10T02:43:44.371Z,1009.27
2019-06-10T02:44:44.692Z,1009.24
2019-06-10T02:45:44.804Z,1009.23
2019-06-10T02:46:44.145Z,1009.20
2019-06-10T02:47:44.503Z,1009.26
2019-06-10T02:48:43.861Z,1009.25
2019-06-10T02:49:57.179Z,1009.29
2019-06-10T02:50:44.252Z,1009.24
2019-06-10T02:51:44.307Z,1009.35
2019-06-10T02:52:44.629Z,1009.26
2019-06-10T02:53:43.819Z,1009.23
2019-06-10T02:54:43.926Z,1009.30
2019-06-10T02:55:44.103Z,1009.32
2019-06-10T02:56:44.421Z,1009.31
2019-06-10T02:57:44.957Z,1009.38
2019-06-10T02:58:44.895Z,1009.36
2019-06-10T02:59:43.698Z,1009.31
2019-06-10T03:00:48.639Z,1009.29
2019-06-10T03:01:44.487Z,1009.31
2019-06-10T03:02:45.137Z,1009.27
2019-06-10T03:03:49.124Z,1009.34
2019-06-10T03:04:44.880Z,1009.31
2019-06-10T03:06:54.272Z,1009.25
2019-06-10T03:07:53.437Z,1009.25
2019-06-10T03:08:54.828Z,1009.30
2019-06-10T03:09:53.720Z,1009.27
2019-06-10T03:10:54.765Z,1009.29
2019-06-10T03:11:53.472Z,1009.28
2019-06-10T03:12:53.037Z,1009.25
2019-06-10T03:13:53.450Z,1009.29
2019-06-10T03:14:52.705Z,1009.31
2019-06-10T03:15:53.014Z,1009.41
2019-06-10T03:16:52.954Z,1009.40
2019-06-10T03:17:52.673Z,1009.31
2019-06-10T03:18:53.003Z,1009.36
2019-06-10T03:19:53.587Z,1009.32
2019-06-10T03:20:52.937Z,1009.35
2019-06-10T03:21:52.951Z,1009.31
2019-06-10T03:22:52.659Z,1009.34
2019-06-10T03:23:53.094Z,1009.35
2019-06-10T03:24:52.864Z,1009.38
2019-06-10T03:25:52.787Z,1009.37
2019-06-10T03:26:52.564Z,1009.31
2019-06-10T03:27:52.819Z,1009.36
2019-06-10T03:28:52.570Z,1009.33
2019-06-10T03:29:52.722Z,1009.36
2019-06-10T03:30:55.325Z,1009.44
2019-06-10T03:31:55.327Z,1009.35
2019-06-10T03:32:55.612Z,1009.37
2019-06-10T03:33:54.259Z,1009.37
2019-06-10T03:34:54.774Z,1009.34
2019-06-10T03:35:52.705Z,1009.35
2019-06-10T03:36:53.498Z,1009.38
2019-06-10T03:37:58.982Z,1009.35
2019-06-10T03:38:53.736Z,1009.42
2019-06-10T03:39:53.142Z,1009.43
2019-06-10T03:40:52.824Z,1009.47
2019-06-10T03:41:52.805Z,1009.47
2019-06-10T03:42:52.391Z,1009.45
2019-06-10T03:43:53.100Z,1009.42
2019-06-10T03:44:52.729Z,1009.49
2019-06-10T03:45:53.113Z,1009.37
2019-06-10T03:46:52.678Z,1009.39
2019-06-10T03:47:52.791Z,1009.41
2019-06-10T03:48:52.702Z,1009.43
2019-06-10T03:49:55.505Z,1009.46
2019-06-10T03:50:52.477Z,1009.41
2019-06-10T03:51:52.984Z,1009.44
2019-06-10T03:52:52.599Z,1009.50
2019-06-10T03:53:53.055Z,1009.46
2019-06-10T03:54:52.609Z,1009.42
2019-06-10T03:55:52.679Z,1009.41
2019-06-10T03:56:52.237Z,1009.54
2019-06-10T03:57:52.676Z,1009.41
2019-06-10T03:58:52.235Z,1009.44
2019-06-10T03:59:52.811Z,1009.47
2019-06-10T04:00:52.559Z,1009.51
2019-06-10T04:01:52.908Z,1009.46
2019-06-10T04:02:53.233Z,1009.48
2019-06-10T04:03:52.950Z,1009.53
2019-06-10T04:04:52.437Z,1009.55
2019-06-10T04:05:52.719Z,1009.61
2019-06-10T04:06:53.127Z,1009.53
2019-06-10T04:07:52.706Z,1009.56
2019-06-10T04:08:52.365Z,1009.60
2019-06-10T04:09:58.664Z,1009.63
2019-06-10T04:10:52.210Z,1009.59
2019-06-10T04:11:53.263Z,1009.64
2019-06-10T04:12:52.470Z,1009.63
2019-06-10T04:13:53.492Z,1009.65
2019-06-10T04:14:52.223Z,1009.57
2019-06-10T04:15:53.479Z,1009.59
2019-06-10T04:16:52.564Z,1009.58
2019-06-10T04:17:53.101Z,1009.57
2019-06-10T04:18:53.405Z,1009.61
2019-06-10T04:20:07.536Z,1009.56
2019-06-10T04:20:52.849Z,1009.62
2019-06-10T04:21:53.205Z,1009.54
2019-06-10T04:22:52.349Z,1009.55
2019-06-10T04:23:52.814Z,1009.58
2019-06-10T04:24:52.090Z,1009.54
2019-06-10T04:25:52.676Z,1009.60
2019-06-10T04:26:52.232Z,1009.53
2019-06-10T04:27:52.441Z,1009.55
2019-06-10T04:28:52.994Z,1009.54
2019-06-10T04:29:52.371Z,1009.50
2019-06-10T04:30:53.578Z,1009.45
2019-06-10T04:31:52.479Z,1009.43
2019-06-10T04:32:52.910Z,1009.43
2019-06-10T04:33:52.341Z,1009.46
2019-06-10T04:34:52.988Z,1009.43
2019-06-10T04:35:52.097Z,1009.39
2019-06-10T04:36:52.593Z,1009.38
2019-06-10T04:37:52.154Z,1009.45
2019-06-10T04:38:52.549Z,1009.37
2019-06-10T04:39:52.985Z,1009.42
2019-06-10T04:40:52.522Z,1009.39
2019-06-10T04:41:59.570Z,1009.45
2019-06-10T04:42:52.520Z,1009.35
2019-06-10T04:43:53.233Z,1009.42
2019-06-10T04:44:52.576Z,1009.36
2019-06-10T04:45:52.765Z,1009.38
2019-06-10T04:46:52.121Z,1009.39
2019-06-10T04:47:52.475Z,1009.44
2019-06-10T04:48:53.249Z,1009.45
2019-06-10T04:49:52.249Z,1009.48
2019-06-10T04:50:53.394Z,1009.40
2019-06-10T04:51:52.387Z,1009.40
2019-06-10T04:52:52.861Z,1009.41
2019-06-10T04:53:52.396Z,1009.44
2019-06-10T04:54:52.743Z,1009.46
2019-06-10T04:55:52.236Z,1009.34
2019-06-10T04:56:52.891Z,1009.47
2019-06-10T04:57:52.133Z,1009.43
2019-06-10T04:58:52.568Z,1009.41
2019-06-10T04:59:52.965Z,1009.45
2019-06-10T05:00:52.400Z,1009.43
2019-06-10T05:01:53.046Z,1009.40
2019-06-10T05:02:52.210Z,1009.36
2019-06-10T05:03:52.650Z,1009.47
2019-06-10T05:04:53.184Z,1009.40
2019-06-10T05:05:52.552Z,1009.41
2019-06-10T05:06:52.701Z,1009.40
2019-06-10T05:07:52.030Z,1009.43
2019-06-10T05:08:53.616Z,1009.45
2019-06-10T05:09:52.512Z,1009.35
2019-06-10T05:10:52.937Z,1009.27
2019-06-10T05:11:52.247Z,1009.24
2019-06-10T05:12:52.634Z,1009.20
2019-06-10T05:13:59.138Z,1009.27
2019-06-10T05:14:52.656Z,1009.33
2019-06-10T05:15:52.733Z,1009.28
2019-06-10T05:16:54.164Z,1009.28
2019-06-10T05:17:52.666Z,1009.22
2019-06-10T05:18:54.523Z,1009.26
2019-06-10T05:19:53.075Z,1009.34
2019-06-10T05:20:58.307Z,1009.36
2019-06-10T05:21:52.446Z,1009.39
2019-06-10T05:22:52.836Z,1009.36
2019-06-10T05:23:52.206Z,1009.30
2019-06-10T05:24:52.716Z,1009.31
2019-06-10T05:25:52.409Z,1009.29
2019-06-10T05:26:52.689Z,1009.32
2019-06-10T05:27:52.244Z,1009.33
2019-06-10T05:28:52.438Z,1009.35
2019-06-10T05:29:52.718Z,1009.29
2019-06-10T05:30:53.164Z,1009.26
2019-06-10T05:31:52.303Z,1009.28
2019-06-10T05:32:52.388Z,1009.20
2019-06-10T05:33:53.076Z,1009.22
2019-06-10T05:34:52.807Z,1009.24
2019-06-10T05:35:52.939Z,1009.24
2019-06-10T05:36:52.532Z,1009.18
2019-06-10T05:37:52.729Z,1009.22
2019-06-10T05:38:52.576Z,1009.19
2019-06-10T05:39:52.693Z,1009.15
2019-06-10T05:40:52.149Z,1009.13
2019-06-10T05:41:53.042Z,1009.07
2019-06-10T05:42:52.869Z,1009.14
2019-06-10T05:43:52.302Z,1009.21
2019-06-10T05:44:52.480Z,1009.25
2019-06-10T05:45:58.842Z,1009.26
2019-06-10T05:46:52.807Z,1009.22
2019-06-10T05:47:53.080Z,1009.19
2019-06-10T05:48:52.647Z,1009.29
2019-06-10T05:49:52.938Z,1009.29
2019-06-10T05:51:00.157Z,1009.30
2019-06-10T05:51:52.678Z,1009.33
2019-06-10T05:52:52.061Z,1009.37
2019-06-10T05:53:52.782Z,1009.38
2019-06-10T05:54:52.158Z,1009.37
2019-06-10T05:55:52.847Z,1009.31
2019-06-10T05:56:52.176Z,1009.32
2019-06-10T05:57:53.149Z,1009.27
2019-06-10T05:58:52.487Z,1009.27
2019-06-10T05:59:52.267Z,1009.38
2019-06-10T06:00:53.021Z,1009.37
2019-06-10T06:01:53.803Z,1009.36
2019-06-10T06:02:52.232Z,1009.30
2019-06-10T06:03:52.898Z,1009.35
2019-06-10T06:04:52.910Z,1009.23
2019-06-10T06:05:52.540Z,1009.25
2019-06-10T06:06:53.024Z,1009.25
2019-06-10T06:08:02.239Z,1009.28
2019-06-10T06:08:53.157Z,1009.29
2019-06-10T06:09:53.161Z,1009.37
2019-06-10T06:10:52.753Z,1009.34
2019-06-10T06:11:52.341Z,1009.28
2019-06-10T06:12:52.647Z,1009.29
2019-06-10T06:13:52.209Z,1009.24
2019-06-10T06:14:52.749Z,1009.22
2019-06-10T06:15:52.784Z,1009.23
2019-06-10T06:16:53.198Z,1009.27
2019-06-10T06:18:09.180Z,1009.21
2019-06-10T06:18:52.744Z,1009.16
2019-06-10T06:19:53.314Z,1009.21
2019-06-10T06:20:52.675Z,1009.23
2019-06-10T06:21:52.859Z,1009.16
2019-06-10T06:22:52.282Z,1009.18
2019-06-10T06:23:52.725Z,1009.25
2019-06-10T06:24:52.270Z,1009.27
2019-06-10T06:25:53.178Z,1009.26
2019-06-10T06:26:53.261Z,1009.28
2019-06-10T06:27:52.480Z,1009.33
2019-06-10T06:28:53.274Z,1009.29
2019-06-10T06:29:52.437Z,1009.29
2019-06-10T06:30:52.685Z,1009.23
2019-06-10T06:31:52.307Z,1009.30
2019-06-10T06:32:53.078Z,1009.30
2019-06-10T06:33:52.681Z,1009.23
2019-06-10T06:34:52.698Z,1009.29
2019-06-10T06:35:52.430Z,1009.23
2019-06-10T06:36:52.697Z,1009.17
2019-06-10T06:37:53.967Z,1009.13
2019-06-10T06:38:52.872Z,1009.22
2019-06-10T06:39:52.330Z,1009.30
2019-06-10T06:40:53.506Z,1009.30
2019-06-10T06:41:52.722Z,1009.30
2019-06-10T06:42:52.451Z,1009.30
2019-06-10T06:43:52.786Z,1009.32
2019-06-10T06:44:52.415Z,1009.21
2019-06-10T06:45:52.976Z,1009.22
2019-06-10T06:46:53.096Z,1009.24
2019-06-10T06:47:52.463Z,1009.22
2019-06-10T06:48:52.999Z,1009.24
2019-06-10T06:49:57.486Z,1009.26
2019-06-10T06:51:02.078Z,1009.17
2019-06-10T06:51:56.124Z,1009.21
2019-06-10T06:53:18.841Z,1009.20
2019-06-10T06:53:55.429Z,1009.19
2019-06-10T06:54:50.284Z,1009.20
2019-06-10T06:55:53.576Z,1009.21
2019-06-10T06:57:52.697Z,1009.17
2019-06-10T06:58:52.429Z,1009.15
2019-06-10T06:59:52.453Z,1009.20
2019-06-10T07:01:03.672Z,1009.10
2019-06-10T07:01:52.311Z,1009.05
2019-06-10T07:02:52.803Z,1008.99
2019-06-10T07:03:50.146Z,1009.04
2019-06-10T07:04:52.425Z,1009.01
2019-06-10T07:05:50.134Z,1009.02
2019-06-10T07:06:54.970Z,1009.03
2019-06-10T07:07:50.103Z,1009.07
2019-06-10T07:09:01.450Z,1009.09
2019-06-10T07:09:52.619Z,1009.04
2019-06-10T07:10:52.096Z,1009.08
2019-06-10T07:11:50.060Z,1008.99
2019-06-10T07:12:52.199Z,1009.16
2019-06-10T07:13:53.369Z,1009.17
2019-06-10T07:14:52.462Z,1009.01
2019-06-10T07:15:50.291Z,1009.03
2019-06-10T07:16:52.788Z,1008.97
2019-06-10T07:17:52.533Z,1008.99
2019-06-10T07:18:50.604Z,1009.00
2019-06-10T07:19:52.715Z,1009.08
2019-06-10T07:20:49.956Z,1009.05
2019-06-10T07:22:08.792Z,1009.07
2019-06-10T07:22:50.161Z,1009.13
2019-06-10T07:23:52.590Z,1009.05
2019-06-10T07:24:52.639Z,1009.04
2019-06-10T07:25:50.215Z,1009.01
2019-06-10T07:26:54.312Z,1008.96
2019-06-10T07:27:52.732Z,1009.01
2019-06-10T07:28:49.864Z,1009.01
2019-06-10T07:29:52.755Z,1008.87
2019-06-10T07:30:52.879Z,1009.07
2019-06-10T07:31:51.024Z,1009.01
2019-06-10T07:32:50.120Z,1008.97
2019-06-10T07:33:52.352Z,1008.96
2019-06-10T07:34:52.307Z,1008.96
2019-06-10T07:35:52.344Z,1009.00
2019-06-10T07:36:52.013Z,1008.94
2019-06-10T07:37:52.169Z,1008.90
2019-06-10T07:38:53.565Z,1008.93
2019-06-10T07:39:52.180Z,1008.93
2019-06-10T07:40:49.743Z,1008.92
2019-06-10T07:41:52.628Z,1008.96
2019-06-10T07:42:49.712Z,1008.90
2019-06-10T07:43:52.556Z,1008.98
2019-06-10T07:44:49.692Z,1008.96
2019-06-10T07:45:49.680Z,1008.94
2019-06-10T07:46:50.008Z,1008.90
2019-06-10T07:47:52.164Z,1008.89
2019-06-10T07:48:53.552Z,1008.94
2019-06-10T07:49:52.101Z,1008.92
2019-06-10T07:50:49.637Z,1008.93
2019-06-10T07:51:49.622Z,1008.95
2019-06-10T07:52:49.983Z,1008.81
2019-06-10T07:54:59.344Z,1008.90
2019-06-10T07:55:58.782Z,1008.84
2019-06-10T07:56:58.797Z,1008.87
2019-06-10T07:57:58.779Z,1008.86
2019-06-10T07:58:58.751Z,1008.93
2019-06-10T07:59:58.768Z,1008.82
2019-06-10T08:00:58.401Z,1008.82
2019-06-10T08:01:58.381Z,1008.78
2019-06-10T08:02:58.750Z,1009.00
2019-06-10T08:03:58.362Z,1008.86
2019-06-10T08:04:58.348Z,1008.89
2019-06-10T08:05:58.618Z,1008.92
2019-06-10T08:06:58.330Z,1008.91
2019-06-10T08:07:58.355Z,1008.90
2019-06-10T08:08:58.610Z,1008.84
2019-06-10T08:09:58.300Z,1008.95
2019-06-10T08:10:58.286Z,1008.98
2019-06-10T08:11:58.593Z,1009.05
2019-06-10T08:12:58.270Z,1009.04
2019-06-10T08:13:58.283Z,1009.07
2019-06-10T08:14:58.553Z,1008.97
2019-06-10T08:15:58.223Z,1008.90
2019-06-10T08:16:58.215Z,1008.96
2019-06-10T08:17:58.436Z,1008.95
2019-06-10T08:19:22.122Z,1008.99
2019-06-10T08:19:59.190Z,1009.01
2019-06-10T08:20:58.518Z,1008.98
2019-06-10T08:21:58.155Z,1009.00
2019-06-10T08:22:58.199Z,1008.95
2019-06-10T08:23:58.451Z,1009.02
2019-06-10T08:24:58.130Z,1009.05
2019-06-10T08:26:04.910Z,1009.00
2019-06-10T08:26:58.396Z,1008.99
2019-06-10T08:27:58.403Z,1008.91
2019-06-10T08:28:58.416Z,1008.91
2019-06-10T08:30:14.056Z,1008.96
2019-06-10T08:30:58.069Z,1008.96
2019-06-10T08:31:58.049Z,1009.01
2019-06-10T08:32:58.365Z,1009.08
2019-06-10T08:33:58.339Z,1009.14
2019-06-10T08:34:58.018Z,1009.11
2019-06-10T08:36:00.652Z,1009.00
2019-06-10T08:36:58.284Z,1008.91
2019-06-10T08:37:57.976Z,1008.89
2019-06-10T08:38:57.969Z,1008.89
2019-06-10T08:39:58.201Z,1008.83
2019-06-10T08:40:57.943Z,1009.05
2019-06-10T08:41:57.968Z,1009.06
2019-06-10T08:42:58.217Z,1009.00
2019-06-10T08:43:57.905Z,1008.97
2019-06-10T08:45:00.069Z,1008.97
2019-06-10T08:45:57.891Z,1009.03
2019-06-10T08:46:57.871Z,1009.04
2019-06-10T08:47:58.193Z,1009.07
2019-06-10T08:48:57.849Z,1009.07
2019-06-10T08:49:57.839Z,1009.12
2019-06-10T08:50:58.147Z,1009.08
2019-06-10T08:51:57.860Z,1009.12
2019-06-10T08:53:10.372Z,1009.16
2019-06-10T08:53:58.069Z,1009.12
2019-06-10T08:54:57.786Z,1009.08
2019-06-10T08:55:57.768Z,1009.12
2019-06-10T08:56:58.029Z,1009.05
2019-06-10T08:58:04.555Z,1009.06
2019-06-10T08:58:58.033Z,1009.05
2019-06-10T08:59:58.044Z,1009.06
2019-06-10T09:00:58.000Z,1009.11
2019-06-10T09:01:58.100Z,1009.12
2019-06-10T09:02:58.059Z,1009.13
2019-06-10T09:03:57.681Z,1009.07
2019-06-10T09:04:57.668Z,1009.07
2019-06-10T09:05:58.588Z,1009.09
2019-06-10T09:06:57.646Z,1009.00
2019-06-10T09:07:57.635Z,1009.00
2019-06-10T09:08:57.942Z,1009.08
2019-06-10T09:09:57.613Z,1009.13
2019-06-10T09:10:57.595Z,1009.13
2019-06-10T09:11:57.922Z,1009.20
2019-06-10T09:12:57.582Z,1009.20
2019-06-10T09:13:57.576Z,1009.19
2019-06-10T09:14:57.916Z,1009.20
2019-06-10T09:16:10.792Z,1009.17
2019-06-10T09:16:58.530Z,1009.25
2019-06-10T09:17:57.855Z,1009.13
2019-06-10T09:18:57.515Z,1009.11
2019-06-10T09:19:57.504Z,1009.14
2019-06-10T09:20:57.773Z,1009.14
2019-06-10T09:21:57.568Z,1009.23
2019-06-10T09:23:16.766Z,1009.27
2019-06-10T09:24:00.057Z,1009.23
2019-06-10T09:24:57.488Z,1009.17
2019-06-10T09:25:58.045Z,1009.11
2019-06-10T09:26:57.745Z,1009.14
2019-06-10T09:27:57.411Z,1009.13
2019-06-10T09:28:57.395Z,1009.17
2019-06-10T09:30:04.368Z,1009.19
2019-06-10T09:30:59.208Z,1009.28
2019-06-10T09:31:57.732Z,1009.20
2019-06-10T09:33:00.725Z,1009.19
2019-06-10T09:33:57.642Z,1009.19
2019-06-10T09:34:57.958Z,1009.17
2019-06-10T09:35:57.333Z,1009.14
2019-06-10T09:36:57.675Z,1009.15
2019-06-10T09:37:57.301Z,1009.19
2019-06-10T09:38:57.288Z,1009.22
2019-06-10T09:39:59.704Z,1009.16
2019-06-10T09:41:01.968Z,1009.12
2019-06-10T09:42:02.638Z,1009.20
2019-06-10T09:42:58.522Z,1009.23
2019-06-10T09:43:57.461Z,1009.20
2019-06-10T09:44:57.217Z,1009.26
2019-06-10T09:45:57.514Z,1009.33
2019-06-10T09:47:00.115Z,1009.34
2019-06-10T09:47:59.905Z,1009.37
2019-06-10T09:48:57.452Z,1009.39
2019-06-10T09:49:57.170Z,1009.32
2019-06-10T09:50:58.863Z,1009.31
2019-06-10T09:51:57.814Z,1009.22
2019-06-10T09:52:57.283Z,1009.15
2019-06-10T09:54:03.706Z,1009.17
2019-06-10T09:54:57.456Z,1009.14
2019-06-10T09:55:57.096Z,1009.27
2019-06-10T09:56:57.119Z,1009.20
2019-06-10T09:57:59.984Z,1009.17
2019-06-10T09:58:57.066Z,1009.12
2019-06-10T09:59:57.049Z,1009.16
2019-06-10T10:00:58.037Z,1009.15
2019-06-10T10:02:07.122Z,1009.17
2019-06-10T10:02:57.291Z,1009.21
2019-06-10T10:04:00.093Z,1009.27
2019-06-10T10:04:58.456Z,1009.14
2019-06-10T10:06:09.928Z,1009.23
2019-06-10T10:06:57.541Z,1009.09
2019-06-10T10:07:57.393Z,1009.18
2019-06-10T10:08:58.432Z,1009.18
2019-06-10T10:09:57.475Z,1009.20
2019-06-10T10:10:58.968Z,1009.19
2019-06-10T10:11:56.939Z,1009.29
2019-06-10T10:12:57.183Z,1009.30
2019-06-10T10:13:56.893Z,1009.23
2019-06-10T10:14:56.881Z,1009.34
2019-06-10T10:15:57.242Z,1009.38
2019-06-10T10:17:00.204Z,1009.33
2019-06-10T10:17:56.853Z,1009.25
2019-06-10T10:19:00.629Z,1009.40
2019-06-10T10:19:57.181Z,1009.37
2019-06-10T10:20:59.983Z,1009.23
2019-06-10T10:21:58.473Z,1009.23
2019-06-10T10:22:56.791Z,1009.20
2019-06-10T10:24:06.917Z,1009.18
2019-06-10T10:24:57.168Z,1009.14
2019-06-10T10:25:57.228Z,1009.13
2019-06-10T10:26:58.678Z,1009.18
2019-06-10T10:27:57.746Z,1009.02
2019-06-10T10:28:57.202Z,1009.21
2019-06-10T10:29:57.377Z,1009.24
2019-06-10T10:30:58.103Z,1009.23
2019-06-10T10:31:56.690Z,1009.16
2019-06-10T10:32:56.682Z,1009.25
2019-06-10T10:34:03.338Z,1009.19
2019-06-10T10:34:56.937Z,1009.14
2019-06-10T10:35:56.976Z,1009.25
2019-06-10T10:36:57.448Z,1009.21
2019-06-10T10:37:56.982Z,1009.19
2019-06-10T10:38:56.979Z,1009.29
2019-06-10T10:39:56.765Z,1009.27
2019-06-10T10:40:59.181Z,1009.20
2019-06-10T10:41:57.370Z,1009.17
2019-06-10T10:43:10.140Z,1009.24
2019-06-10T10:43:58.475Z,1009.12
2019-06-10T10:44:59.053Z,1009.18
2019-06-10T10:46:00.059Z,1009.18
2019-06-10T10:46:56.537Z,1009.15
2019-06-10T10:47:57.696Z,1009.21
2019-06-10T10:48:56.833Z,1009.15
2019-06-10T10:49:57.067Z,1009.24
2019-06-10T10:50:56.500Z,1009.09
2019-06-10T10:51:56.484Z,1009.09
2019-06-10T10:52:56.456Z,1009.25
2019-06-10T10:54:17.929Z,1009.11
2019-06-10T10:54:57.750Z,1009.11
2019-06-10T10:55:56.431Z,1009.10
2019-06-10T10:56:59.079Z,1009.08
2019-06-10T10:57:56.741Z,1009.09
2019-06-10T10:58:58.530Z,1009.08
2019-06-10T10:59:56.397Z,1009.04
2019-06-10T11:00:57.701Z,1009.03
2019-06-10T11:01:56.358Z,1008.99
2019-06-10T11:02:56.381Z,1009.06
2019-06-10T11:03:59.083Z,1009.01
2019-06-10T11:04:57.130Z,1009.03
2019-06-10T11:06:03.531Z,1009.12
2019-06-10T11:06:57.960Z,1009.14
2019-06-10T11:07:56.784Z,1009.10
2019-06-10T11:08:57.774Z,1009.07
2019-06-10T11:09:56.897Z,1009.10
2019-06-10T11:11:00.818Z,1009.03
2019-06-10T11:11:57.361Z,1009.00
2019-06-10T11:12:57.290Z,1009.06
2019-06-10T11:13:58.192Z,1009.07
2019-06-10T11:15:01.417Z,1009.00
2019-06-10T11:15:58.430Z,1009.03
2019-06-10T11:16:57.431Z,1009.09
2019-06-10T11:17:56.549Z,1009.06
2019-06-10T11:18:56.736Z,1009.13
2019-06-10T11:19:57.643Z,1009.08
2019-06-10T11:20:59.267Z,1009.13
2019-06-10T11:21:56.134Z,1008.98
2019-06-10T11:22:56.118Z,1008.95
2019-06-10T11:23:59.962Z,1008.93
2019-06-10T11:24:57.719Z,1008.98
2019-06-10T11:25:57.183Z,1008.98
2019-06-10T11:26:56.627Z,1008.93
2019-06-10T11:27:57.249Z,1008.92
2019-06-10T11:28:56.051Z,1008.93
2019-06-10T11:29:57.840Z,1008.87
2019-06-10T11:30:57.411Z,1009.09
2019-06-10T11:31:58.543Z,1009.01
2019-06-10T11:32:58.308Z,1009.02
2019-06-10T11:33:58.997Z,1008.90
2019-06-10T11:34:57.021Z,1008.92
2019-06-10T11:35:58.046Z,1008.97
2019-06-10T11:36:56.393Z,1008.91
2019-06-10T11:38:03.853Z,1008.88
2019-06-10T11:38:59.026Z,1008.95
2019-06-10T11:39:56.503Z,1008.94
2019-06-10T11:40:58.542Z,1008.99
2019-06-10T11:41:57.578Z,1008.92
2019-06-10T11:42:59.527Z,1008.97
2019-06-10T11:43:58.061Z,1008.95
2019-06-10T11:44:58.365Z,1008.89
2019-06-10T11:46:02.977Z,1008.90
2019-06-10T11:46:58.133Z,1008.90
2019-06-10T11:47:57.016Z,1008.86
2019-06-10T11:48:58.565Z,1008.94
2019-06-10T11:49:56.891Z,1008.77
2019-06-10T11:50:59.812Z,1008.88
2019-06-10T11:51:57.584Z,1008.72
2019-06-10T11:53:00.258Z,1008.78
2019-06-10T11:53:57.301Z,1008.68
2019-06-10T11:55:08.886Z,1008.75
2019-06-10T11:55:56.397Z,1008.79
2019-06-10T11:56:57.986Z,1008.75
2019-06-10T11:57:57.571Z,1008.66
2019-06-10T11:58:58.553Z,1008.65
2019-06-10T11:59:57.647Z,1008.61
2019-06-10T12:00:58.744Z,1008.78
2019-06-10T12:01:59.244Z,1008.59
2019-06-10T12:02:58.580Z,1008.70
2019-06-10T12:03:58.799Z,1008.63
2019-06-10T12:04:57.108Z,1008.67
2019-06-10T12:05:59.279Z,1008.74
2019-06-10T12:06:56.833Z,1008.66
2019-06-10T12:07:59.361Z,1008.65
2019-06-10T12:09:00.409Z,1008.72